createdAt,value
2022-11-13T00:00:40.537Z,4.00
2022-11-13T00:01:40.538Z,0.00
2022-11-13T00:02:40.928Z,0.00
2022-11-13T00:03:40.588Z,4.00
2022-11-13T00:04:40.532Z,4.00
2022-11-13T00:05:40.533Z,0.00
2022-11-13T00:06:40.666Z,0.00
2022-11-13T00:07:40.529Z,0.00
2022-11-13T00:08:40.530Z,0.00
2022-11-13T00:09:40.559Z,4.00
2022-11-13T00:10:40.528Z,0.00
2022-11-13T00:11:40.525Z,0.00
2022-11-13T00:12:40.529Z,0.00
2022-11-13T00:13:40.522Z,4.00
2022-11-13T00:14:40.525Z,4.00
2022-11-13T00:15:40.636Z,0.00
2022-11-13T00:16:40.521Z,0.00
2022-11-13T00:17:40.522Z,4.00
2022-11-13T00:18:40.525Z,4.00
2022-11-13T00:19:40.522Z,0.00
2022-11-13T00:20:40.519Z,4.00
2022-11-13T00:21:40.515Z,4.00
2022-11-13T00:22:40.522Z,0.00
2022-11-13T00:23:40.512Z,4.00
2022-11-13T00:24:40.518Z,4.00
2022-11-13T00:25:40.511Z,4.00
2022-11-13T00:26:40.509Z,0.00
2022-11-13T00:27:40.509Z,0.00
2022-11-13T00:28:40.506Z,0.00
2022-11-13T00:29:40.510Z,0.00
2022-11-13T00:30:40.505Z,0.00
2022-11-13T00:31:40.625Z,4.00
2022-11-13T00:32:40.510Z,4.00
2022-11-13T00:34:19.992Z,4.00
2022-11-13T00:34:47.488Z,0.00
2022-11-13T00:35:40.502Z,0.00
2022-11-13T00:36:40.498Z,0.00
2022-11-13T00:37:40.503Z,0.00
2022-11-13T00:38:40.498Z,0.00
2022-11-13T00:39:40.499Z,0.00
2022-11-13T00:40:40.499Z,4.00
2022-11-13T00:41:40.497Z,4.00
2022-11-13T00:42:40.494Z,4.00
2022-11-13T00:43:40.498Z,4.00
2022-11-13T00:44:40.493Z,0.00
2022-11-13T00:45:40.492Z,0.00
2022-11-13T00:46:40.490Z,0.00
2022-11-13T00:47:40.604Z,0.00
2022-11-13T00:48:40.487Z,4.00
2022-11-13T00:49:40.491Z,0.00
2022-11-13T00:50:40.488Z,0.00
2022-11-13T00:51:40.485Z,0.00
2022-11-13T00:52:40.487Z,0.00
2022-11-13T00:53:40.486Z,0.00
2022-11-13T00:54:40.483Z,4.00
2022-11-13T00:55:40.498Z,0.00
2022-11-13T00:56:40.480Z,4.00
2022-11-13T00:57:40.485Z,0.00
2022-11-13T00:58:40.479Z,4.00
2022-11-13T00:59:40.477Z,0.00
2022-11-13T01:00:40.475Z,0.00
2022-11-13T01:01:40.594Z,0.00
2022-11-13T01:02:40.474Z,4.00
2022-11-13T01:03:40.592Z,0.00
2022-11-13T01:04:40.477Z,0.00
2022-11-13T01:05:40.475Z,4.00
2022-11-13T01:06:40.520Z,4.00
2022-11-13T01:07:40.477Z,4.00
2022-11-13T01:08:40.471Z,4.00
2022-11-13T01:09:40.473Z,4.00
2022-11-13T01:10:40.469Z,4.00
2022-11-13T01:11:40.474Z,4.00
2022-11-13T01:12:40.466Z,0.00
2022-11-13T01:13:40.468Z,0.00
2022-11-13T01:14:40.465Z,4.00
2022-11-13T01:15:40.463Z,0.00
2022-11-13T01:16:40.466Z,4.00
2022-11-13T01:17:40.463Z,4.00
2022-11-13T01:18:40.464Z,4.00
2022-11-13T01:19:40.580Z,0.00
2022-11-13T01:20:40.459Z,4.00
2022-11-13T01:21:40.462Z,4.00
2022-11-13T01:22:40.457Z,4.00
2022-11-13T01:23:40.458Z,4.00
2022-11-13T01:24:40.458Z,0.00
2022-11-13T01:25:40.454Z,4.00
2022-11-13T01:26:40.451Z,4.00
2022-11-13T01:27:40.455Z,0.00
2022-11-13T01:28:40.454Z,4.00
2022-11-13T01:29:40.454Z,0.00
2022-11-13T01:30:40.447Z,0.00
2022-11-13T01:31:40.451Z,4.00
2022-11-13T01:32:40.447Z,4.00
2022-11-13T01:33:40.451Z,4.00
2022-11-13T01:34:40.772Z,4.00
2022-11-13T01:35:40.555Z,4.00
2022-11-13T01:36:40.446Z,0.00
2022-11-13T01:37:40.445Z,0.00
2022-11-13T01:38:40.440Z,0.00
2022-11-13T01:39:40.444Z,4.00
2022-11-13T01:40:40.445Z,4.00
2022-11-13T01:41:40.444Z,0.00
2022-11-13T01:42:40.447Z,0.00
2022-11-13T01:43:40.443Z,0.00
2022-11-13T01:44:40.438Z,4.00
2022-11-13T01:45:40.439Z,4.00
2022-11-13T01:46:40.437Z,4.00
2022-11-13T01:47:40.434Z,0.00
2022-11-13T01:48:40.431Z,4.00
2022-11-13T01:49:40.434Z,0.00
2022-11-13T01:50:40.430Z,4.00
2022-11-13T01:51:40.549Z,4.00
2022-11-13T01:52:40.432Z,4.00
2022-11-13T01:53:40.429Z,0.00
2022-11-13T01:54:40.430Z,4.00
2022-11-13T01:55:40.424Z,0.00
2022-11-13T01:56:40.434Z,4.00
2022-11-13T01:57:40.429Z,4.00
2022-11-13T01:58:40.423Z,0.00
2022-11-13T01:59:40.425Z,0.00
2022-11-13T02:00:40.421Z,0.00
2022-11-13T02:01:40.466Z,0.00
2022-11-13T02:02:40.419Z,0.00
2022-11-13T02:03:40.474Z,0.00
2022-11-13T02:04:40.416Z,4.00
2022-11-13T02:05:40.421Z,4.00
2022-11-13T02:06:40.453Z,0.00
2022-11-13T02:07:40.533Z,0.00
2022-11-13T02:08:40.410Z,4.00
2022-11-13T02:09:40.412Z,0.00
2022-11-13T02:10:40.417Z,4.00
2022-11-13T02:11:40.415Z,0.00
2022-11-13T02:12:40.408Z,0.00
2022-11-13T02:13:40.413Z,4.00
2022-11-13T02:14:40.408Z,4.00
2022-11-13T02:15:40.407Z,4.00
2022-11-13T02:16:40.407Z,0.00
2022-11-13T02:17:40.406Z,4.00
2022-11-13T02:18:40.408Z,4.00
2022-11-13T02:19:40.407Z,4.00
2022-11-13T02:20:40.406Z,0.00
2022-11-13T02:21:40.403Z,4.00
2022-11-13T02:22:40.403Z,4.00
2022-11-13T02:23:40.519Z,0.00
2022-11-13T02:24:44.767Z,4.00
2022-11-13T02:25:40.406Z,0.00
2022-11-13T02:26:40.399Z,0.00
2022-11-13T02:27:40.397Z,4.00
2022-11-13T02:28:40.400Z,4.00
2022-11-13T02:29:40.398Z,0.00
2022-11-13T02:30:40.391Z,4.00
2022-11-13T02:31:40.394Z,0.00
2022-11-13T02:32:40.393Z,4.00
2022-11-13T02:33:40.395Z,0.00
2022-11-13T02:34:40.387Z,4.00
2022-11-13T02:35:40.389Z,0.00
2022-11-13T02:36:40.385Z,0.00
2022-11-13T02:37:40.386Z,4.00
2022-11-13T02:38:40.387Z,4.00
2022-11-13T02:39:40.499Z,0.00
2022-11-13T02:40:40.383Z,4.00
2022-11-13T02:41:40.385Z,0.00
2022-11-13T02:42:40.383Z,4.00
2022-11-13T02:43:40.389Z,4.00
2022-11-13T02:44:40.381Z,4.00
2022-11-13T02:45:40.376Z,0.00
2022-11-13T02:46:40.375Z,0.00
2022-11-13T02:47:40.375Z,4.00
2022-11-13T02:48:40.374Z,4.00
2022-11-13T02:49:40.382Z,4.00
2022-11-13T02:50:40.382Z,4.00
2022-11-13T02:51:40.375Z,0.00
2022-11-13T02:52:40.435Z,0.00
2022-11-13T02:53:40.371Z,4.00
2022-11-13T02:54:40.366Z,4.00
2022-11-13T02:55:40.487Z,4.00
2022-11-13T02:56:40.373Z,0.00
2022-11-13T02:57:40.368Z,0.00
2022-11-13T02:58:40.369Z,4.00
2022-11-13T02:59:40.368Z,4.00
2022-11-13T03:00:40.366Z,0.00
2022-11-13T03:01:40.424Z,4.00
2022-11-13T03:02:40.361Z,0.00
2022-11-13T03:03:57.116Z,4.00
2022-11-13T03:05:10.393Z,0.00
2022-11-13T03:05:40.358Z,0.00
2022-11-13T03:06:40.452Z,0.00
2022-11-13T03:07:40.356Z,0.00
2022-11-13T03:08:40.538Z,0.00
2022-11-13T03:09:40.355Z,4.00
2022-11-13T03:10:40.359Z,0.00
2022-11-13T03:11:40.473Z,0.00
2022-11-13T03:12:40.355Z,0.00
2022-11-13T03:13:40.354Z,0.00
2022-11-13T03:14:40.350Z,0.00
2022-11-13T03:15:40.351Z,0.00
2022-11-13T03:16:40.352Z,0.00
2022-11-13T03:17:40.350Z,4.00
2022-11-13T03:18:40.347Z,4.00
2022-11-13T03:19:40.348Z,0.00
2022-11-13T03:20:40.345Z,0.00
2022-11-13T03:21:40.346Z,0.00
2022-11-13T03:22:40.339Z,0.00
2022-11-13T03:23:40.375Z,0.00
2022-11-13T03:24:40.341Z,4.00
2022-11-13T03:25:40.340Z,0.00
2022-11-13T03:26:40.338Z,4.00
2022-11-13T03:27:40.454Z,0.00
2022-11-13T03:28:40.337Z,0.00
2022-11-13T03:29:40.336Z,0.00
2022-11-13T03:30:40.334Z,4.00
2022-11-13T03:31:40.336Z,4.00
2022-11-13T03:32:40.333Z,4.00
2022-11-13T03:33:40.335Z,4.00
2022-11-13T03:34:40.329Z,0.00
2022-11-13T03:35:45.441Z,0.00
2022-11-13T03:36:40.332Z,0.00
2022-11-13T03:37:40.328Z,4.00
2022-11-13T03:38:40.328Z,0.00
2022-11-13T03:39:40.324Z,0.00
2022-11-13T03:40:40.323Z,0.00
2022-11-13T03:41:40.329Z,0.00
2022-11-13T03:42:40.323Z,4.00
2022-11-13T03:43:40.440Z,4.00
2022-11-13T03:44:40.322Z,0.00
2022-11-13T03:45:40.319Z,0.00
2022-11-13T03:46:40.314Z,0.00
2022-11-13T03:47:40.320Z,0.00
2022-11-13T03:48:40.313Z,4.00
2022-11-13T03:49:40.317Z,0.00
2022-11-13T03:50:45.260Z,0.00
2022-11-13T03:51:40.313Z,4.00
2022-11-13T03:52:40.309Z,0.00
2022-11-13T03:53:40.313Z,4.00
2022-11-13T03:54:40.310Z,0.00
2022-11-13T03:55:40.309Z,0.00
2022-11-13T03:56:40.311Z,0.00
2022-11-13T03:57:40.309Z,0.00
2022-11-13T03:58:40.644Z,0.00
2022-11-13T03:59:40.330Z,0.00
2022-11-13T04:00:40.302Z,0.00
2022-11-13T04:01:40.346Z,0.00
2022-11-13T04:02:40.300Z,4.00
2022-11-13T04:03:40.300Z,0.00
2022-11-13T04:04:40.307Z,0.00
2022-11-13T04:05:40.306Z,0.00
2022-11-13T04:06:40.372Z,0.00
2022-11-13T04:07:40.295Z,4.00
2022-11-13T04:08:40.346Z,4.00
2022-11-13T04:09:40.297Z,0.00
2022-11-13T04:10:40.294Z,0.00
2022-11-13T04:11:40.294Z,0.00
2022-11-13T04:12:40.294Z,0.00
2022-11-13T04:13:40.290Z,0.00
2022-11-13T04:14:40.290Z,0.00
2022-11-13T04:15:40.404Z,0.00
2022-11-13T04:16:40.322Z,4.00
2022-11-13T04:17:40.292Z,4.00
2022-11-13T04:18:40.283Z,4.00
2022-11-13T04:19:40.281Z,4.00
2022-11-13T04:20:40.287Z,0.00
2022-11-13T04:21:40.279Z,4.00
2022-11-13T04:22:40.278Z,0.00
2022-11-13T04:23:40.279Z,0.00
2022-11-13T04:24:40.279Z,0.00
2022-11-13T04:25:40.281Z,0.00
2022-11-13T04:26:40.276Z,4.00
2022-11-13T04:27:40.271Z,0.00
2022-11-13T04:28:40.288Z,4.00
2022-11-13T04:29:40.274Z,4.00
2022-11-13T04:30:40.268Z,0.00
2022-11-13T04:31:40.391Z,4.00
2022-11-13T04:32:40.273Z,4.00
2022-11-13T04:33:40.268Z,0.00
2022-11-13T04:34:40.269Z,4.00
2022-11-13T04:35:40.268Z,4.00
2022-11-13T04:36:40.265Z,0.00
2022-11-13T04:37:40.272Z,4.00
2022-11-13T04:38:40.265Z,0.00
2022-11-13T04:39:40.265Z,0.00
2022-11-13T04:40:40.268Z,4.00
2022-11-13T04:41:40.259Z,0.00
2022-11-13T04:42:40.264Z,4.00
2022-11-13T04:43:40.259Z,0.00
2022-11-13T04:44:40.261Z,0.00
2022-11-13T04:45:40.261Z,0.00
2022-11-13T04:46:40.255Z,4.00
2022-11-13T04:47:40.380Z,4.00
2022-11-13T04:48:40.253Z,4.00
2022-11-13T04:49:40.250Z,4.00
2022-11-13T04:50:40.249Z,4.00
2022-11-13T04:51:40.251Z,0.00
2022-11-13T04:52:40.249Z,4.00
2022-11-13T04:53:40.250Z,4.00
2022-11-13T04:54:40.245Z,4.00
2022-11-13T04:55:40.244Z,4.00
2022-11-13T04:56:40.242Z,0.00
2022-11-13T04:57:40.258Z,0.00
2022-11-13T04:58:40.250Z,4.00
2022-11-13T04:59:40.251Z,0.00
2022-11-13T05:00:40.242Z,0.00
2022-11-13T05:01:40.285Z,4.00
2022-11-13T05:02:40.243Z,4.00
2022-11-13T05:03:40.355Z,4.00
2022-11-13T05:04:40.247Z,4.00
2022-11-13T05:05:40.238Z,0.00
2022-11-13T05:06:40.281Z,0.00
2022-11-13T05:07:40.234Z,4.00
2022-11-13T05:08:40.284Z,4.00
2022-11-13T05:09:40.235Z,4.00
2022-11-13T05:10:40.230Z,4.00
2022-11-13T05:11:40.237Z,4.00
2022-11-13T05:12:40.230Z,0.00
2022-11-13T05:13:40.225Z,0.00
2022-11-13T05:14:40.236Z,0.00
2022-11-13T05:15:40.223Z,0.00
2022-11-13T05:16:40.226Z,0.00
2022-11-13T05:17:40.224Z,0.00
2022-11-13T05:18:40.226Z,0.00
2022-11-13T05:19:40.344Z,0.00
2022-11-13T05:20:40.220Z,0.00
2022-11-13T05:21:40.220Z,0.00
2022-11-13T05:22:40.229Z,0.00
2022-11-13T05:23:40.215Z,0.00
2022-11-13T05:24:40.223Z,0.00
2022-11-13T05:25:40.217Z,0.00
2022-11-13T05:26:40.214Z,0.00
2022-11-13T05:27:40.209Z,0.00
2022-11-13T05:28:40.214Z,0.00
2022-11-13T05:29:40.209Z,0.00
2022-11-13T05:30:40.210Z,0.00
2022-11-13T05:31:40.216Z,0.00
2022-11-13T05:32:40.206Z,0.00
2022-11-13T05:33:40.207Z,0.00
2022-11-13T05:34:40.206Z,0.00
2022-11-13T05:35:40.320Z,0.00
2022-11-13T05:36:40.204Z,0.00
2022-11-13T05:37:40.202Z,0.00
2022-11-13T05:38:40.204Z,0.00
2022-11-13T05:39:40.200Z,0.00
2022-11-13T05:40:40.198Z,0.00
2022-11-13T05:41:40.202Z,0.00
2022-11-13T05:42:40.198Z,0.00
2022-11-13T05:43:40.194Z,0.00
2022-11-13T05:44:40.195Z,0.00
2022-11-13T05:45:40.192Z,0.00
2022-11-13T05:46:40.194Z,0.00
2022-11-13T05:47:40.187Z,0.00
2022-11-13T05:48:40.198Z,0.00
2022-11-13T05:49:40.187Z,0.00
2022-11-13T05:50:40.189Z,0.00
2022-11-13T05:51:40.309Z,0.00
2022-11-13T05:52:40.188Z,0.00
2022-11-13T05:53:40.186Z,0.00
2022-11-13T05:54:40.184Z,4.00
2022-11-13T05:55:40.185Z,4.00
2022-11-13T05:56:40.183Z,0.00
2022-11-13T05:57:40.179Z,0.00
2022-11-13T05:58:40.178Z,0.00
2022-11-13T05:59:40.178Z,4.00
2022-11-13T06:00:40.183Z,0.00
2022-11-13T06:01:40.273Z,4.00
2022-11-13T06:02:40.177Z,4.00
2022-11-13T06:03:40.174Z,4.00
2022-11-13T06:04:40.178Z,4.00
2022-11-13T06:05:40.170Z,8.00
2022-11-13T06:06:40.215Z,8.00
2022-11-13T06:07:40.285Z,8.00
2022-11-13T06:08:40.170Z,8.00
2022-11-13T06:09:40.169Z,8.00
2022-11-13T06:10:40.166Z,8.00
2022-11-13T06:11:40.164Z,12.00
2022-11-13T06:12:40.168Z,12.00
2022-11-13T06:13:40.161Z,16.00
2022-11-13T06:14:40.164Z,20.00
2022-11-13T06:15:40.175Z,24.00
2022-11-13T06:16:40.160Z,24.00
2022-11-13T06:17:40.160Z,28.00
2022-11-13T06:18:40.159Z,32.00
2022-11-13T06:19:40.156Z,36.00
2022-11-13T06:20:40.161Z,36.00
2022-11-13T06:21:40.155Z,36.00
2022-11-13T06:22:40.154Z,40.00
2022-11-13T06:23:40.267Z,44.00
2022-11-13T06:24:40.152Z,44.00
2022-11-13T06:25:40.149Z,48.00
2022-11-13T06:26:40.153Z,52.00
2022-11-13T06:27:40.149Z,56.00
2022-11-13T06:28:40.152Z,60.00
2022-11-13T06:29:40.144Z,64.00
2022-11-13T06:30:40.150Z,72.00
2022-11-13T06:31:40.150Z,76.00
2022-11-13T06:32:40.145Z,80.00
2022-11-13T06:33:40.143Z,84.00
2022-11-13T06:34:40.147Z,92.00
2022-11-13T06:35:40.139Z,92.00
2022-11-13T06:36:40.142Z,96.00
2022-11-13T06:37:40.136Z,100.00
2022-11-13T06:38:40.224Z,108.00
2022-11-13T06:39:40.254Z,116.00
2022-11-13T06:40:40.137Z,120.00
2022-11-13T06:41:40.133Z,128.00
2022-11-13T06:42:40.136Z,144.00
2022-11-13T06:43:40.130Z,144.00
2022-11-13T06:44:40.133Z,144.00
2022-11-13T06:45:40.129Z,156.00
2022-11-13T06:46:40.128Z,156.00
2022-11-13T06:47:40.129Z,164.00
2022-11-13T06:48:40.131Z,172.00
2022-11-13T06:49:40.131Z,184.00
2022-11-13T06:50:42.404Z,192.00
2022-11-13T06:51:40.121Z,200.00
2022-11-13T06:52:40.130Z,204.00
2022-11-13T06:53:40.123Z,200.00
2022-11-13T06:54:40.122Z,204.00
2022-11-13T06:55:40.303Z,204.00
2022-11-13T06:56:40.120Z,220.00
2022-11-13T06:57:40.116Z,248.00
2022-11-13T06:58:40.119Z,260.00
2022-11-13T06:59:40.119Z,280.00
2022-11-13T07:00:40.364Z,288.00
2022-11-13T07:01:40.149Z,292.00
2022-11-13T07:02:40.111Z,292.00
2022-11-13T07:03:40.116Z,304.00
2022-11-13T07:04:40.112Z,316.00
2022-11-13T07:05:40.160Z,316.00
2022-11-13T07:06:40.629Z,324.00
2022-11-13T07:07:40.111Z,324.00
2022-11-13T07:08:40.208Z,328.00
2022-11-13T07:09:40.102Z,316.00
2022-11-13T07:10:40.107Z,324.00
2022-11-13T07:11:40.227Z,328.00
2022-11-13T07:12:40.104Z,336.00
2022-11-13T07:13:40.106Z,344.00
2022-11-13T07:14:40.101Z,364.00
2022-11-13T07:15:40.097Z,380.00
2022-11-13T07:17:04.738Z,396.00
2022-11-13T07:17:40.098Z,392.00
2022-11-13T07:18:40.098Z,376.00
2022-11-13T07:19:40.095Z,348.00
2022-11-13T07:20:40.091Z,316.00
2022-11-13T07:21:40.098Z,296.00
2022-11-13T07:22:40.087Z,276.00
2022-11-13T07:23:40.090Z,272.00
2022-11-13T07:24:40.095Z,280.00
2022-11-13T07:25:40.089Z,296.00
2022-11-13T07:26:40.097Z,304.00
2022-11-13T07:27:40.208Z,300.00
2022-11-13T07:28:40.092Z,336.00
2022-11-13T07:29:40.084Z,336.00
2022-11-13T07:30:40.082Z,320.00
2022-11-13T07:31:40.085Z,364.00
2022-11-13T07:32:40.078Z,384.00
2022-11-13T07:33:40.082Z,428.00
2022-11-13T07:34:40.075Z,484.00
2022-11-13T07:35:40.077Z,508.00
2022-11-13T07:36:40.074Z,492.00
2022-11-13T07:37:40.074Z,480.00
2022-11-13T07:38:40.078Z,452.00
2022-11-13T07:39:40.074Z,440.00
2022-11-13T07:40:40.073Z,416.00
2022-11-13T07:41:40.071Z,416.00
2022-11-13T07:42:40.078Z,400.00
2022-11-13T07:43:40.189Z,404.00
2022-11-13T07:44:54.203Z,416.00
2022-11-13T07:45:40.067Z,416.00
2022-11-13T07:46:40.065Z,424.00
2022-11-13T07:47:40.066Z,456.00
2022-11-13T07:48:40.064Z,516.00
2022-11-13T07:49:40.065Z,568.00
2022-11-13T07:50:40.068Z,564.00
2022-11-13T07:51:40.061Z,624.00
2022-11-13T07:52:40.063Z,652.00
2022-11-13T07:53:40.065Z,696.00
2022-11-13T07:54:40.047Z,780.00
2022-11-13T07:55:40.064Z,792.00
2022-11-13T07:56:40.057Z,800.00
2022-11-13T07:57:40.058Z,868.00
2022-11-13T07:58:40.056Z,832.00
2022-11-13T07:59:40.173Z,896.00
2022-11-13T08:00:40.239Z,904.00
2022-11-13T08:01:40.065Z,932.00
2022-11-13T08:02:40.051Z,936.00
2022-11-13T08:03:40.053Z,944.00
2022-11-13T08:04:40.046Z,940.00
2022-11-13T08:05:40.048Z,972.00
2022-11-13T08:06:40.127Z,980.00
2022-11-13T08:07:40.050Z,992.00
2022-11-13T08:08:40.041Z,1012.00
2022-11-13T08:09:40.041Z,1036.00
2022-11-13T08:10:40.039Z,992.00
2022-11-13T08:11:40.036Z,948.00
2022-11-13T08:12:40.037Z,952.00
2022-11-13T08:13:40.042Z,944.00
2022-11-13T08:14:40.032Z,1020.00
2022-11-13T08:15:40.149Z,980.00
2022-11-13T08:16:40.036Z,1028.00
2022-11-13T08:17:40.038Z,1088.00
2022-11-13T08:18:40.048Z,1064.00
2022-11-13T08:19:40.032Z,1076.00
2022-11-13T08:20:40.033Z,1052.00
2022-11-13T08:21:40.028Z,996.00
2022-11-13T08:22:40.033Z,1040.00
2022-11-13T08:23:40.027Z,1048.00
2022-11-13T08:24:40.031Z,1076.00
2022-11-13T08:25:40.027Z,1096.00
2022-11-13T08:26:40.018Z,1108.00
2022-11-13T08:27:40.019Z,1116.00
2022-11-13T08:28:40.013Z,1152.00
2022-11-13T08:29:40.023Z,1156.00
2022-11-13T08:30:40.013Z,1176.00
2022-11-13T08:31:40.128Z,1200.00
2022-11-13T08:32:40.025Z,1144.00
2022-11-13T08:33:40.015Z,1152.00
2022-11-13T08:34:40.011Z,1180.00
2022-11-13T08:35:40.009Z,1192.00
2022-11-13T08:36:40.012Z,1240.00
2022-11-13T08:37:40.009Z,1252.00
2022-11-13T08:38:40.022Z,1200.00
2022-11-13T08:39:40.007Z,1176.00
2022-11-13T08:40:40.010Z,1212.00
2022-11-13T08:41:40.013Z,1136.00
2022-11-13T08:42:40.006Z,1116.00
2022-11-13T08:43:40.002Z,1120.00
2022-11-13T08:44:40.006Z,1204.00
2022-11-13T08:45:40.000Z,1196.00
2022-11-13T08:46:39.999Z,1168.00
2022-11-13T08:47:40.114Z,1248.00
2022-11-13T08:48:40.000Z,1276.00
2022-11-13T08:49:39.997Z,1244.00
2022-11-13T08:50:39.993Z,1308.00
2022-11-13T08:51:40.007Z,1372.00
2022-11-13T08:52:39.995Z,1400.00
2022-11-13T08:53:39.987Z,1420.00
2022-11-13T08:54:40.011Z,1500.00
2022-11-13T08:55:40.028Z,1500.00
2022-11-13T08:56:40.023Z,1480.00
2022-11-13T08:57:40.007Z,1480.00
2022-11-13T08:58:40.013Z,1508.00
2022-11-13T08:59:40.026Z,1452.00
2022-11-13T09:00:40.019Z,1512.00
2022-11-13T09:01:40.029Z,1596.00
2022-11-13T09:02:40.035Z,1612.00
2022-11-13T09:03:40.245Z,1648.00
2022-11-13T09:04:39.999Z,1744.00
2022-11-13T09:05:40.022Z,1732.00
2022-11-13T09:06:40.093Z,1720.00
2022-11-13T09:07:40.013Z,1780.00
2022-11-13T09:08:39.982Z,1812.00
2022-11-13T09:09:39.981Z,1824.00
2022-11-13T09:10:39.982Z,1900.00
2022-11-13T09:11:39.974Z,1996.00
2022-11-13T09:12:39.971Z,1956.00
2022-11-13T09:13:44.518Z,2080.00
2022-11-13T09:14:39.968Z,2036.00
2022-11-13T09:15:39.969Z,1916.00
2022-11-13T09:16:39.960Z,1868.00
2022-11-13T09:17:39.970Z,1768.00
2022-11-13T09:18:39.977Z,1756.00
2022-11-13T09:19:40.073Z,1880.00
2022-11-13T09:20:39.967Z,2124.00
2022-11-13T09:21:39.965Z,2116.00
2022-11-13T09:22:39.966Z,2160.00
2022-11-13T09:23:39.960Z,2120.00
2022-11-13T09:24:39.959Z,1996.00
2022-11-13T09:25:39.961Z,2040.00
2022-11-13T09:26:39.960Z,2072.00
2022-11-13T09:27:39.964Z,2016.00
2022-11-13T09:28:39.961Z,2056.00
2022-11-13T09:29:39.954Z,2048.00
2022-11-13T09:30:39.962Z,1992.00
2022-11-13T09:31:39.950Z,2092.00
2022-11-13T09:32:39.954Z,2196.00
2022-11-13T09:33:39.949Z,2280.00
2022-11-13T09:34:39.949Z,2208.00
2022-11-13T09:35:40.068Z,2200.00
2022-11-13T09:36:39.952Z,2280.00
2022-11-13T09:37:39.946Z,2344.00
2022-11-13T09:38:39.942Z,2416.00
2022-11-13T09:39:39.959Z,2496.00
2022-11-13T09:40:39.943Z,2704.00
2022-11-13T09:41:39.949Z,2932.00
2022-11-13T09:42:39.942Z,2840.00
2022-11-13T09:43:39.940Z,2800.00
2022-11-13T09:44:39.945Z,2836.00
2022-11-13T09:45:39.942Z,2772.00
2022-11-13T09:46:39.939Z,2756.00
2022-11-13T09:47:39.942Z,2680.00
2022-11-13T09:48:39.934Z,2752.00
2022-11-13T09:49:39.937Z,2952.00
2022-11-13T09:50:39.932Z,2960.00
2022-11-13T09:51:40.046Z,2784.00
2022-11-13T09:52:39.933Z,2624.00
2022-11-13T09:53:39.927Z,2612.00
2022-11-13T09:54:39.938Z,2752.00
2022-11-13T09:55:39.929Z,2708.00
2022-11-13T09:56:39.929Z,2756.00
2022-11-13T09:57:39.922Z,2772.00
2022-11-13T09:58:39.923Z,2820.00
2022-11-13T09:59:39.921Z,2892.00
2022-11-13T10:00:39.973Z,2916.00
2022-11-13T10:01:39.922Z,2924.00
2022-11-13T10:02:39.917Z,2968.00
2022-11-13T10:03:59.878Z,2968.00
2022-11-13T10:04:39.915Z,2900.00
2022-11-13T10:05:39.917Z,2876.00
2022-11-13T10:06:39.974Z,2900.00
2022-11-13T10:07:40.043Z,2948.00
2022-11-13T10:08:39.913Z,3072.00
2022-11-13T10:09:39.913Z,3132.00
2022-11-13T10:10:39.908Z,3136.00
2022-11-13T10:11:39.907Z,3044.00
2022-11-13T10:12:39.907Z,3156.00
2022-11-13T10:13:39.908Z,3420.00
2022-11-13T10:14:39.904Z,3788.00
2022-11-13T10:15:39.909Z,3916.00
2022-11-13T10:16:39.906Z,3768.00
2022-11-13T10:17:39.928Z,3568.00
2022-11-13T10:18:39.903Z,3404.00
2022-11-13T10:19:39.914Z,3524.00
2022-11-13T10:20:39.902Z,3608.00
2022-11-13T10:21:39.902Z,3628.00
2022-11-13T10:22:39.902Z,3744.00
2022-11-13T10:23:40.031Z,4036.00
2022-11-13T10:24:39.899Z,4052.00
2022-11-13T10:25:39.897Z,3876.00
2022-11-13T10:26:39.895Z,3780.00
2022-11-13T10:27:40.015Z,4512.00
2022-11-13T10:28:55.281Z,5128.00
2022-11-13T10:29:43.440Z,4288.00
2022-11-13T10:30:39.889Z,4132.00
2022-11-13T10:31:39.895Z,4412.00
2022-11-13T10:32:39.892Z,4244.00
2022-11-13T10:33:39.893Z,4192.00
2022-11-13T10:34:40.221Z,4916.00
2022-11-13T10:35:39.901Z,5556.00
2022-11-13T10:36:39.889Z,4652.00
2022-11-13T10:37:39.887Z,4104.00
2022-11-13T10:38:39.889Z,4320.00
2022-11-13T10:39:40.001Z,4052.00
2022-11-13T10:40:39.889Z,4060.00
2022-11-13T10:41:39.885Z,4076.00
2022-11-13T10:42:39.881Z,4084.00
2022-11-13T10:43:39.884Z,4132.00
2022-11-13T10:44:39.877Z,3900.00
2022-11-13T10:45:39.884Z,3440.00
2022-11-13T10:46:39.880Z,3276.00
2022-11-13T10:48:03.164Z,3368.00
2022-11-13T10:48:39.877Z,3468.00
2022-11-13T10:49:39.884Z,3708.00
2022-11-13T10:50:39.889Z,3824.00
2022-11-13T10:51:39.879Z,3724.00
2022-11-13T10:52:39.877Z,3528.00
2022-11-13T10:53:39.877Z,3520.00
2022-11-13T10:54:39.872Z,3616.00
2022-11-13T10:55:39.989Z,3816.00
2022-11-13T10:56:39.874Z,3936.00
2022-11-13T10:57:39.875Z,3896.00
2022-11-13T10:58:39.873Z,4180.00
2022-11-13T10:59:39.875Z,4372.00
2022-11-13T11:00:39.866Z,4520.00
2022-11-13T11:01:39.978Z,4976.00
2022-11-13T11:02:39.867Z,5524.00
2022-11-13T11:03:39.868Z,5568.00
2022-11-13T11:04:39.867Z,5900.00
2022-11-13T11:05:39.877Z,6768.00
2022-11-13T11:07:39.985Z,6392.00
2022-11-13T11:08:39.868Z,6568.00
2022-11-13T11:09:39.866Z,7396.00
2022-11-13T11:10:39.864Z,8228.00
2022-11-13T11:11:39.979Z,7148.00
2022-11-13T11:12:39.872Z,7620.00
2022-11-13T11:13:39.860Z,6068.00
2022-11-13T11:14:39.862Z,6432.00
2022-11-13T11:15:39.860Z,6528.00
2022-11-13T11:16:39.860Z,6256.00
2022-11-13T11:17:39.863Z,6452.00
2022-11-13T11:18:39.863Z,6308.00
2022-11-13T11:19:39.867Z,6316.00
2022-11-13T11:20:39.864Z,6232.00
2022-11-13T11:21:39.862Z,6412.00
2022-11-13T11:22:39.858Z,6384.00
2022-11-13T11:23:39.872Z,6132.00
2022-11-13T11:24:40.054Z,6128.00
2022-11-13T11:25:39.854Z,6208.00
2022-11-13T11:26:39.858Z,6456.00
2022-11-13T11:27:39.973Z,6776.00
2022-11-13T11:28:39.858Z,6564.00
2022-11-13T11:29:39.852Z,7688.00
2022-11-13T11:30:39.851Z,6292.00
2022-11-13T11:31:39.852Z,6100.00
2022-11-13T11:32:39.852Z,6152.00
2022-11-13T11:33:39.850Z,7104.00
2022-11-13T11:34:39.857Z,5772.00
2022-11-13T11:35:39.850Z,6000.00
2022-11-13T11:36:39.850Z,5880.00
2022-11-13T11:37:39.854Z,6332.00
2022-11-13T11:38:39.860Z,5852.00
2022-11-13T11:39:39.854Z,3776.00
2022-11-13T11:40:39.848Z,3516.00
2022-11-13T11:41:39.843Z,3272.00
2022-11-13T11:42:39.845Z,3864.00
2022-11-13T11:43:39.955Z,4260.00
2022-11-13T11:44:39.844Z,4184.00
2022-11-13T11:45:39.841Z,3996.00
2022-11-13T11:46:44.100Z,3604.00
2022-11-13T11:47:39.847Z,4036.00
2022-11-13T11:48:39.845Z,3216.00
2022-11-13T11:49:39.844Z,3736.00
2022-11-13T11:50:39.843Z,3788.00
2022-11-13T11:51:39.836Z,3800.00
2022-11-13T11:52:39.845Z,3848.00
2022-11-13T11:53:39.835Z,3864.00
2022-11-13T11:54:39.850Z,3792.00
2022-11-13T11:55:39.839Z,3904.00
2022-11-13T11:56:39.835Z,3416.00
2022-11-13T11:57:39.842Z,3668.00
2022-11-13T11:58:39.833Z,3720.00
2022-11-13T11:59:39.972Z,3812.00
2022-11-13T12:00:39.838Z,4040.00
2022-11-13T12:01:39.836Z,3912.00
2022-11-13T12:02:39.836Z,4040.00
2022-11-13T12:03:39.830Z,3780.00
2022-11-13T12:04:39.877Z,3848.00
2022-11-13T12:05:39.881Z,3684.00
2022-11-13T12:06:39.868Z,3524.00
2022-11-13T12:07:39.829Z,3292.00
2022-11-13T12:08:39.833Z,3304.00
2022-11-13T12:09:39.837Z,3304.00
2022-11-13T12:10:39.827Z,3320.00
2022-11-13T12:11:39.835Z,3324.00
2022-11-13T12:12:39.826Z,3308.00
2022-11-13T12:13:39.831Z,3160.00
2022-11-13T12:14:39.817Z,3204.00
2022-11-13T12:15:40.007Z,3192.00
2022-11-13T12:16:39.836Z,3112.00
2022-11-13T12:17:39.822Z,3108.00
2022-11-13T12:18:39.824Z,3080.00
2022-11-13T12:19:39.828Z,3060.00
2022-11-13T12:20:39.834Z,3040.00
2022-11-13T12:21:39.824Z,3044.00
2022-11-13T12:22:39.816Z,3024.00
2022-11-13T12:23:39.821Z,2988.00
2022-11-13T12:24:39.816Z,2944.00
2022-11-13T12:25:39.824Z,2932.00
2022-11-13T12:26:39.825Z,2932.00
2022-11-13T12:27:39.815Z,2944.00
2022-11-13T12:28:41.276Z,2924.00
2022-11-13T12:29:39.813Z,2892.00
2022-11-13T12:30:39.816Z,2868.00
2022-11-13T12:31:39.939Z,2860.00
2022-11-13T12:32:39.813Z,2880.00
2022-11-13T12:33:39.824Z,2828.00
2022-11-13T12:34:39.814Z,2804.00
2022-11-13T12:35:39.822Z,2836.00
2022-11-13T12:36:39.818Z,2840.00
2022-11-13T12:37:39.812Z,2804.00
2022-11-13T12:38:39.810Z,2744.00
2022-11-13T12:39:39.828Z,2740.00
2022-11-13T12:40:44.305Z,2712.00
2022-11-13T12:41:39.809Z,2716.00
2022-11-13T12:42:39.808Z,2716.00
2022-11-13T12:43:39.809Z,2716.00
2022-11-13T12:44:39.810Z,2700.00
2022-11-13T12:45:39.813Z,2700.00